Wahoo, NE

9:36 AM CDT on September 21, 2017 (GMT -0500)
Wahoo Municipal

Weather History for KAHQ - October, 2014

Change the Weather History Date:

Monday, October 20, 2014

  Actual Average Record
Temperature  
Mean Temperature 58 °F -  
Max Temperature 73 °F 64 °F 86 °F (1975)
Min Temperature 43 °F 37 °F 19 °F (1989)
Degree Days  
Heating Degree Days 7    
Growing Degree Days 8 (Base 50)    
Moisture  
Dew Point 38 °F    
Average Humidity 56    
Maximum Humidity 83    
Minimum Humidity 19    
Precipitation  
Precipitation 0.00 in - - ()
Sea Level Pressure  
Sea Level Pressure 30.05 in    
Wind  
Wind Speed 3 mph (NNW)    
Max Wind Speed 8 mph    
Max Gust Speed -    
Visibility 9 miles    
Events      
Averages and records for this station are not official NWS values.
T = Trace of Precipitation, MM = Missing Value Source: NWS Daily Summary

Daily Weather History Graph

Daily Weather History Graph

Search for Another Location

Airport or City:

Trip Planner

Search our weather history database for the weather conditions in past years. The results will help you decide how hot, cold, wet, or windy it might be!

Date:

Astronomy

Oct. 20, 2014 Rise Set
Actual Time 7:43 AM CDT 6:37 PM CDT
Civil Twilight 7:15 AM CDT 7:05 PM CDT
Nautical Twilight 6:43 AM CDT 7:37 PM CDT
Astronomical Twilight 6:11 AM CDT 8:09 PM CDT
Moon 4:31 AM CDT (10/20) 5:02 PM CDT (10/20)
Length of Visible Light 11h 50m
Length of Day
10h 54m
Waning Crescent, 10% of the Moon is Illuminated
Oct 20
Waning Crescent
Oct 23
New
Oct 30
First Quarter
Nov 6
Full
Nov 14
Last Quarter

Hourly Weather History & Observations

Time (CDT) Temp. Windchill Dew Point Humidity Pressure Visibility Wind Dir Wind Speed Gust Speed Precip Events Conditions
12:15 AM 53.8 °F - 46.6 °F 77% 29.96 in 10.0 mi Calm Calm - N/A   Clear
12:35 AM 53.2 °F - 46.2 °F 77% 29.96 in 10.0 mi Calm Calm - N/A   Clear
12:55 AM 54.5 °F - 46.8 °F 75% 29.96 in 10.0 mi Calm Calm - N/A   Clear
1:15 AM 54.9 °F - 47.1 °F 75% 29.97 in 10.0 mi Calm Calm - N/A   Clear
1:35 AM 55.8 °F - 47.5 °F 74% 29.97 in 10.0 mi WNW 4.6 mph - N/A   Clear
1:55 AM 55.0 °F - 46.9 °F 74% 29.97 in 10.0 mi WNW 5.8 mph - N/A   Clear
2:15 AM 50.9 °F - 44.1 °F 77% 29.98 in 10.0 mi Calm Calm - N/A   Clear
2:30 AM 51.6 °F - 45.9 °F 81% 29.98 in 10.0 mi WNW 4.6 mph - N/A   Clear
2:55 AM 51.4 °F - 44.6 °F 77% 29.99 in 10.0 mi WNW 6.9 mph - N/A   Clear
3:15 AM 53.4 °F - 44.6 °F 72% 29.99 in 10.0 mi NW 5.8 mph - N/A   Clear
3:35 AM 52.7 °F - 43.9 °F 72% 29.98 in 10.0 mi NW 5.8 mph - N/A   Clear
3:55 AM 51.4 °F - 42.8 °F 72% 29.99 in 10.0 mi Calm Calm - N/A   Clear
4:15 AM 47.1 °F - 42.3 °F 83% 30.00 in 10.0 mi NNW 5.8 mph - N/A   Clear
4:35 AM 48.9 °F - 42.1 °F 77% 30.00 in 10.0 mi NNW 6.9 mph - N/A   Clear
4:55 AM 49.1 °F - 41.9 °F 76% 30.01 in 10.0 mi NNW 8.1 mph - N/A   Clear
5:15 AM 49.3 °F - 41.5 °F 75% 30.01 in 10.0 mi NNW 8.1 mph - N/A   Clear
5:35 AM 48.7 °F - 41.2 °F 75% 30.02 in 10.0 mi NNW 6.9 mph - N/A   Clear
5:55 AM 48.4 °F - 41.0 °F 76% 30.02 in 10.0 mi NNW 8.1 mph - N/A   Clear
6:15 AM 48.0 °F - 40.8 °F 76% 30.03 in 10.0 mi NNW 8.1 mph - N/A   Clear
6:35 AM 48.2 °F - 40.6 °F 75% 30.04 in 10.0 mi NNW 8.1 mph - N/A   Clear
6:55 AM 47.3 °F - 40.3 °F 77% 30.05 in 10.0 mi NNW 6.9 mph - N/A   Clear
7:15 AM 45.9 °F 42.3 °F 39.7 °F 79% 30.05 in 10.0 mi NNW 6.9 mph - N/A   Clear
7:35 AM 46.2 °F 42.7 °F 40.1 °F 79% 30.06 in 10.0 mi NNW 6.9 mph - N/A   Clear
7:55 AM 46.2 °F 43.3 °F 40.1 °F 79% 30.07 in 10.0 mi NNW 5.8 mph - N/A   Clear
8:15 AM 46.4 °F 43.5 °F 40.1 °F 79% 30.08 in 10.0 mi NNW 5.8 mph - N/A   Clear
8:35 AM 47.7 °F - 40.6 °F 77% 30.09 in 10.0 mi NNW 5.8 mph - N/A   Clear
8:55 AM 50.0 °F - 41.0 °F 71% 30.09 in 10.0 mi NNW 5.8 mph - N/A   Clear
9:15 AM 51.3 °F - 41.2 °F 68% 30.10 in 10.0 mi NNW 5.8 mph - N/A   Clear
9:35 AM 53.4 °F - 41.9 °F 65% 30.10 in 10.0 mi NNW 5.8 mph - N/A   Clear
9:55 AM 55.4 °F - 42.3 °F 61% 30.11 in 10.0 mi North 4.6 mph - N/A   Clear
10:15 AM 56.5 °F - 42.6 °F 60% 30.11 in 10.0 mi North 4.6 mph - N/A   Clear
10:35 AM 57.9 °F - 42.3 °F 56% 30.12 in 10.0 mi NNW 3.5 mph - N/A   Clear
10:55 AM 59.7 °F - 42.4 °F 53% 30.12 in 10.0 mi Calm Calm - N/A   Clear
11:15 AM 61.7 °F - 41.9 °F 48% 30.12 in 10.0 mi Calm Calm - N/A   Clear
11:35 AM 63.0 °F - 40.5 °F 44% 30.12 in 10.0 mi Calm Calm - N/A   Clear
11:55 AM 64.8 °F - 39.4 °F 39% 30.12 in 10.0 mi NNW 3.5 mph - N/A   Clear
12:15 PM 66.0 °F - 37.9 °F 36% 30.12 in 10.0 mi Calm Calm - N/A   Clear
12:35 PM 67.5 °F - 36.3 °F 32% 30.11 in 10.0 mi Calm Calm - N/A   Clear
12:55 PM 68.5 °F - 35.8 °F 30% 30.10 in 10.0 mi NNE 8.1 mph - N/A   Clear
1:15 PM 69.3 °F - 35.2 °F 29% 30.09 in 10.0 mi NNE 5.8 mph - N/A   Clear
1:35 PM 69.8 °F - 32.7 °F 25% 30.08 in 10.0 mi North 3.5 mph - N/A   Clear
1:55 PM 71.2 °F - 33.1 °F 25% 30.07 in 10.0 mi North 5.8 mph - N/A   Clear
2:15 PM 71.4 °F - 32.2 °F 24% 30.07 in 10.0 mi Calm Calm - N/A   Clear
2:35 PM 71.8 °F - 31.1 °F 22% 30.07 in 10.0 mi Calm Calm - N/A   Clear
2:55 PM 72.7 °F - 31.8 °F 22% 30.06 in 10.0 mi North 6.9 mph - N/A   Clear
3:15 PM 72.5 °F - 30.2 °F 21% 30.06 in 10.0 mi West 3.5 mph - N/A   Clear
3:35 PM 73.0 °F - 29.8 °F 20% 30.05 in 10.0 mi Calm Calm - N/A   Clear
3:55 PM 72.9 °F - 29.3 °F 20% 30.05 in 10.0 mi NNW 5.8 mph - N/A   Clear
4:15 PM 73.4 °F - 29.5 °F 20% 30.05 in 10.0 mi NNW 5.8 mph - N/A   Clear
4:35 PM 73.6 °F - 28.9 °F 19% 30.05 in 10.0 mi West 3.5 mph - N/A   Clear
4:55 PM 73.0 °F - 28.0 °F 19% 30.04 in 10.0 mi North 4.6 mph - N/A   Clear
5:15 PM 72.9 °F - 28.0 °F 19% 30.04 in 10.0 mi NW 4.6 mph - N/A   Clear
5:35 PM 72.5 °F - 27.5 °F 19% 30.04 in 10.0 mi Calm Calm - N/A   Clear
5:55 PM 71.2 °F - 28.9 °F 21% 30.04 in 10.0 mi North 3.5 mph - N/A   Clear
6:15 PM 68.4 °F - 29.8 °F 24% 30.05 in 10.0 mi Calm Calm - N/A   Clear
6:35 PM 66.2 °F - 31.1 °F 27% 30.05 in 10.0 mi Calm Calm - N/A   Clear
6:55 PM 62.6 °F - 32.9 °F 33% 30.05 in 7.0 mi Calm Calm - N/A   Clear
7:15 PM 60.8 °F - 32.7 °F 35% 30.05 in 5.0 mi Calm Calm - N/A   Haze
7:35 PM 60.6 °F - 34.0 °F 37% 30.05 in 0.8 mi Calm Calm - N/A   Haze
7:55 PM 58.5 °F - 33.8 °F 39% 30.05 in 10.0 mi Calm Calm - N/A   Clear
8:15 PM 57.4 °F - 36.1 °F 45% 30.05 in 2.0 mi SSW 3.5 mph - N/A   Haze
8:35 PM 56.3 °F - 41.7 °F 58% 30.05 in 1.0 mi SSW 3.5 mph - N/A   Haze
8:55 PM 53.6 °F - 40.5 °F 61% 30.06 in 0.8 mi Calm Calm - N/A   Haze
9:15 PM 54.5 °F - 37.0 °F 52% 30.06 in 1.5 mi Calm Calm - N/A   Haze
9:35 PM 52.9 °F - 37.6 °F 56% 30.06 in 2.5 mi SW 3.5 mph - N/A   Haze
9:55 PM 50.4 °F - 41.5 °F 72% 30.07 in 7.0 mi Calm Calm - N/A   Clear
10:15 PM 46.4 °F - 40.8 °F 81% 30.07 in 10.0 mi Calm Calm - N/A   Clear
10:35 PM 45.9 °F 42.9 °F 38.5 °F 75% 30.07 in 10.0 mi North 5.8 mph - N/A   Clear
10:55 PM 45.5 °F 44.2 °F 37.4 °F 73% 30.07 in 10.0 mi NNE 3.5 mph - N/A   Clear
11:15 PM 43.0 °F - 37.2 °F 80% 30.07 in 10.0 mi Calm Calm - N/A   Clear
11:35 PM 45.1 °F - 38.1 °F 76% 30.07 in 10.0 mi Calm Calm - N/A   Clear
11:55 PM 45.7 °F - 38.3 °F 75% 30.06 in 10.0 mi Calm Calm - N/A   Clear